Time;durP1;ratioP1;P1;durP2;ratioP2;P2;SDS_P1;SDS_P2;PMS_P1;PMS_P2;Temp;Humidity;BMP_temperature;BMP_pressure;BME280_temperature;BME280_humidity;BME280_pressure;Samples;Min_cycle;Max_cycle;Signal;HPM_P1;HPM_P2
2021/09/14 00:01:49;;;;;;;17.08;13.55;;;;;;;;;;5024183;28;20443;-84
2021/09/14 00:04:17;;;;;;;16.25;13.48;;;;;;;;;;5024415;28;20057;-83
2021/09/14 00:06:44;;;;;;;17.27;14.00;;;;;;;;;;5024107;28;20064;-83
2021/09/14 00:09:12;;;;;;;17.42;13.88;;;;;;;;;;5024991;28;20077;-83
2021/09/14 00:11:40;;;;;;;19.67;14.38;;;;;;;;;;5024484;28;20050;-83
2021/09/14 00:14:07;;;;;;;18.63;14.38;;;;;;;;;;5035696;28;20081;-83
2021/09/14 00:16:34;;;;;;;18.95;14.82;;;;;;;;;;5045703;28;20049;-83
2021/09/14 00:19:01;;;;;;;19.55;14.77;;;;;;;;;;5046341;28;20076;-83
2021/09/14 00:21:30;;;;;;;19.65;13.98;;;;;;;;;;5043793;28;20053;-83
2021/09/14 00:23:56;;;;;;;18.58;13.82;;;;;;;;;;5044211;28;20045;-83
2021/09/14 00:26:23;;;;;;;17.80;14.60;;;;;;;;;;5044311;28;20076;-83
2021/09/14 00:28:50;;;;;;;17.85;14.52;;;;;;;;;;5041380;28;20073;-83
2021/09/14 00:31:17;;;;;;;17.63;13.38;;;;;;;;;;5041081;28;20065;-83
2021/09/14 00:33:44;;;;;;;18.10;13.98;;;;;;;;;;5040988;28;20080;-83
2021/09/14 00:36:11;;;;;;;17.40;13.38;;;;;;;;;;5040773;28;20057;-84
2021/09/14 00:38:39;;;;;;;17.85;13.85;;;;;;;;;;5042037;28;20068;-83
2021/09/14 00:41:06;;;;;;;20.67;14.73;;;;;;;;;;5040702;28;20053;-83
2021/09/14 00:43:33;;;;;;;18.25;15.27;;;;;;;;;;5041070;28;20049;-83
2021/09/14 00:45:59;;;;;;;18.75;13.80;;;;;;;;;;5042048;28;20054;-83
2021/09/14 00:48:26;;;;;;;18.60;13.82;;;;;;;;;;5041435;28;20045;-84
2021/09/14 00:50:53;;;;;;;17.48;14.73;;;;;;;;;;5041450;28;20619;-83
2021/09/14 00:53:20;;;;;;;18.92;14.93;;;;;;;;;;5040963;28;20053;-83
2021/09/14 00:55:49;;;;;;;18.35;14.43;;;;;;;;;;5041435;28;20073;-84
2021/09/14 00:58:16;;;;;;;19.63;14.77;;;;;;;;;;5040948;28;20050;-84
2021/09/14 01:00:43;;;;;;;17.45;14.05;;;;;;;;;;5041418;28;20053;-84
2021/09/14 01:03:11;;;;;;;19.20;14.38;;;;;;;;;;5041317;28;20053;-85
2021/09/14 01:05:37;;;;;;;17.40;13.02;;;;;;;;;;5041747;28;20045;-84
2021/09/14 01:08:07;;;;;;;18.58;13.60;;;;;;;;;;5041512;28;20042;-84
2021/09/14 01:10:35;;;;;;;17.83;13.73;;;;;;;;;;5041819;28;20049;-83
2021/09/14 01:13:04;;;;;;;17.98;13.70;;;;;;;;;;5041694;28;20049;-83
2021/09/14 01:15:31;;;;;;;18.23;14.43;;;;;;;;;;5041071;28;20072;-83
2021/09/14 01:17:58;;;;;;;16.73;13.68;;;;;;;;;;5041628;28;20052;-83
2021/09/14 01:20:24;;;;;;;19.05;14.73;;;;;;;;;;5046724;28;20049;-83
2021/09/14 01:22:53;;;;;;;17.80;13.80;;;;;;;;;;5058327;28;20048;-83
2021/09/14 01:25:21;;;;;;;16.98;13.85;;;;;;;;;;5058798;28;20079;-83
2021/09/14 01:27:48;;;;;;;18.20;14.68;;;;;;;;;;5058468;28;20089;-83
2021/09/14 01:30:18;;;;;;;19.25;13.90;;;;;;;;;;5054481;28;20057;-83
2021/09/14 01:32:46;;;;;;;20.25;14.10;;;;;;;;;;5044862;28;20111;-83
2021/09/14 01:35:15;;;;;;;17.92;14.38;;;;;;;;;;5044512;28;20056;-83
2021/09/14 01:37:42;;;;;;;17.20;13.00;;;;;;;;;;5043565;28;20056;-83
2021/09/14 01:40:11;;;;;;;16.77;12.57;;;;;;;;;;5044963;28;20060;-84
2021/09/14 01:42:39;;;;;;;17.00;13.18;;;;;;;;;;5050726;28;20077;-83
2021/09/14 01:45:07;;;;;;;19.60;13.63;;;;;;;;;;5051682;28;20072;-83
2021/09/14 01:47:35;;;;;;;17.25;13.35;;;;;;;;;;5051950;28;20064;-83
2021/09/14 01:50:02;;;;;;;16.50;12.77;;;;;;;;;;5051521;28;20053;-83
2021/09/14 01:52:29;;;;;;;15.80;12.07;;;;;;;;;;5046831;28;20049;-84
2021/09/14 01:54:56;;;;;;;17.88;12.88;;;;;;;;;;5045265;28;20049;-84
2021/09/14 01:57:30;;;;;;;17.58;14.15;;;;;;;;;;5045221;28;20056;-84
2021/09/14 01:59:59;;;;;;;17.25;13.43;;;;;;;;;;5043736;28;20049;-84
2021/09/14 02:02:40;;;;;;;16.63;13.07;;;;;;;;;;5044901;28;20076;-83
2021/09/14 02:05:10;;;;;;;18.10;13.80;;;;;;;;;;5050690;28;20049;-83
2021/09/14 02:30:07;;;;;;;16.48;12.75;;;;;;;;;;5114487;28;20096;-65
2021/09/14 02:33:46;;;;;;;15.65;11.68;;;;;;;;;;5114862;28;20054;-67
2021/09/14 02:38:56;;;;;;;16.45;11.98;;;;;;;;;;5114748;28;20126;-67
2021/09/14 02:41:46;;;;;;;15.15;12.10;;;;;;;;;;5114608;28;20142;-67
2021/09/14 03:00:42;;;;;;;14.35;11.30;;;;;;;;;;5113941;28;20051;-68
2021/09/14 03:03:10;;;;;;;14.85;11.38;;;;;;;;;;5113724;28;20225;-67
2021/09/14 03:05:37;;;;;;;15.70;11.98;;;;;;;;;;5113636;28;20062;-67
2021/09/14 03:08:04;;;;;;;15.07;11.82;;;;;;;;;;5112925;28;20048;-67
2021/09/14 03:10:31;;;;;;;14.52;11.57;;;;;;;;;;5113136;28;20519;-67
2021/09/14 03:12:58;;;;;;;14.93;11.57;;;;;;;;;;5113479;28;20044;-67
2021/09/14 03:15:25;;;;;;;17.65;12.52;;;;;;;;;;5112872;28;20051;-67
2021/09/14 03:17:54;;;;;;;15.80;11.77;;;;;;;;;;5113023;28;20055;-67
2021/09/14 03:20:21;;;;;;;15.02;11.85;;;;;;;;;;5108841;28;20056;-67
2021/09/14 03:22:48;;;;;;;14.20;11.75;;;;;;;;;;5099241;28;20139;-67
2021/09/14 03:25:15;;;;;;;15.65;11.48;;;;;;;;;;5099423;28;20138;-67
2021/09/14 03:27:42;;;;;;;15.13;12.23;;;;;;;;;;5098885;28;20052;-67
2021/09/14 03:30:10;;;;;;;16.67;12.02;;;;;;;;;;5099303;28;20123;-67
2021/09/14 03:32:37;;;;;;;16.38;12.50;;;;;;;;;;5099233;28;20051;-67
2021/09/14 03:35:06;;;;;;;14.82;11.60;;;;;;;;;;5099274;28;20066;-67
2021/09/14 03:37:33;;;;;;;15.07;11.50;;;;;;;;;;5099598;28;20055;-67
2021/09/14 03:40:00;;;;;;;14.73;11.35;;;;;;;;;;5098977;28;20101;-67
2021/09/14 03:42:27;;;;;;;16.55;12.80;;;;;;;;;;5099032;28;20074;-67
2021/09/14 03:44:54;;;;;;;16.13;12.73;;;;;;;;;;5099115;28;20052;-67
2021/09/14 03:47:21;;;;;;;15.02;10.63;;;;;;;;;;5099243;28;20135;-67
2021/09/14 03:49:48;;;;;;;15.93;11.85;;;;;;;;;;5098553;28;20054;-67
2021/09/14 03:52:16;;;;;;;15.10;11.77;;;;;;;;;;5098612;28;20048;-67
2021/09/14 03:54:43;;;;;;;17.67;12.20;;;;;;;;;;5098143;28;20056;-67
2021/09/14 03:57:11;;;;;;;15.15;11.60;;;;;;;;;;5099172;28;20048;-67
2021/09/14 03:59:40;;;;;;;15.07;12.02;;;;;;;;;;5098188;28;20135;-67
2021/09/14 04:02:14;;;;;;;15.03;11.57;;;;;;;;;;5098444;28;20142;-67
2021/09/14 04:04:49;;;;;;;15.18;11.32;;;;;;;;;;5097864;28;20503;-67
2021/09/14 04:07:25;;;;;;;17.92;12.02;;;;;;;;;;5098671;28;20078;-67
2021/09/14 04:09:53;;;;;;;14.32;10.98;;;;;;;;;;5097798;28;20052;-67
2021/09/14 04:12:20;;;;;;;17.08;11.43;;;;;;;;;;5098436;28;20044;-67
2021/09/14 04:14:47;;;;;;;16.58;10.75;;;;;;;;;;5097474;28;20048;-67
2021/09/14 04:17:14;;;;;;;14.45;10.93;;;;;;;;;;5097924;28;20058;-67
2021/09/14 04:19:41;;;;;;;16.75;11.82;;;;;;;;;;5097890;28;20481;-67
2021/09/14 04:22:08;;;;;;;16.63;11.95;;;;;;;;;;5096204;28;20048;-66
2021/09/14 04:24:37;;;;;;;15.52;11.65;;;;;;;;;;5093923;28;20044;-66
2021/09/14 04:27:04;;;;;;;15.50;10.80;;;;;;;;;;5094003;28;20060;-66
2021/09/14 04:29:31;;;;;;;19.83;12.77;;;;;;;;;;5093780;28;20048;-66
2021/09/14 04:31:58;;;;;;;15.13;11.95;;;;;;;;;;5093151;28;20050;-66
2021/09/14 04:34:25;;;;;;;17.35;13.05;;;;;;;;;;5093510;28;20048;-66
2021/09/14 04:36:52;;;;;;;16.45;10.95;;;;;;;;;;5093746;28;20044;-66
2021/09/14 04:39:20;;;;;;;16.42;11.60;;;;;;;;;;5093415;28;20550;-66
2021/09/14 04:41:48;;;;;;;15.63;10.85;;;;;;;;;;5093900;28;20044;-66
2021/09/14 04:44:15;;;;;;;16.92;11.02;;;;;;;;;;5093394;28;20059;-66
2021/09/14 04:46:42;;;;;;;15.13;12.35;;;;;;;;;;5093332;28;20409;-66
2021/09/14 04:49:09;;;;;;;18.25;11.45;;;;;;;;;;5093348;28;20048;-66
2021/09/14 04:51:36;;;;;;;15.82;11.95;;;;;;;;;;5093769;28;20062;-66
2021/09/14 04:54:03;;;;;;;16.08;11.48;;;;;;;;;;5093585;28;20048;-66
2021/09/14 04:56:30;;;;;;;17.40;12.40;;;;;;;;;;5093256;28;20062;-67
2021/09/14 04:58:59;;;;;;;18.20;11.98;;;;;;;;;;5093620;28;20052;-66
2021/09/14 05:01:26;;;;;;;17.38;12.65;;;;;;;;;;5093483;28;20058;-66
2021/09/14 05:03:52;;;;;;;17.73;12.18;;;;;;;;;;5092929;28;20058;-66
2021/09/14 05:06:19;;;;;;;15.00;11.15;;;;;;;;;;5093392;28;20048;-66
2021/09/14 05:08:46;;;;;;;16.92;11.80;;;;;;;;;;5093242;28;20408;-66
2021/09/14 05:11:13;;;;;;;15.07;10.88;;;;;;;;;;5093185;28;20091;-66
2021/09/14 05:13:41;;;;;;;17.80;11.77;;;;;;;;;;5093276;28;20115;-66
2021/09/14 05:16:09;;;;;;;15.15;11.63;;;;;;;;;;5093080;28;20043;-66
2021/09/14 05:18:36;;;;;;;15.77;11.57;;;;;;;;;;5093321;28;20048;-66
2021/09/14 05:21:03;;;;;;;15.75;11.50;;;;;;;;;;5092789;28;20086;-66
2021/09/14 05:23:33;;;;;;;15.45;11.23;;;;;;;;;;5092830;28;20100;-66
2021/09/14 05:26:01;;;;;;;19.20;12.48;;;;;;;;;;5093354;28;20509;-66
2021/09/14 05:28:28;;;;;;;23.67;12.25;;;;;;;;;;5092733;28;20056;-66
2021/09/14 05:30:56;;;;;;;15.15;10.68;;;;;;;;;;5092694;28;20054;-67
2021/09/14 05:33:24;;;;;;;17.30;11.00;;;;;;;;;;5092736;28;20044;-66
2021/09/14 05:35:53;;;;;;;18.50;12.63;;;;;;;;;;5092626;28;20044;-66
2021/09/14 05:38:23;;;;;;;19.17;12.75;;;;;;;;;;5092837;28;20050;-66
2021/09/14 05:40:53;;;;;;;17.75;12.20;;;;;;;;;;5092249;28;20048;-66
2021/09/14 05:43:20;;;;;;;;;;;;;;;;;;5092935;28;20044;-67
2021/09/14 05:45:47;;;;;;;13.73;10.88;;;;;;;;;;5092564;28;20038;-66
2021/09/14 05:48:14;;;;;;;17.63;12.57;;;;;;;;;;5092622;28;20056;-65
2021/09/14 05:50:42;;;;;;;15.25;11.20;;;;;;;;;;5092303;28;20435;-66
2021/09/14 05:53:09;;;;;;;18.05;11.65;;;;;;;;;;5092614;28;20051;-66
2021/09/14 05:55:37;;;;;;;15.77;10.55;;;;;;;;;;5092438;28;20050;-66
2021/09/14 05:58:05;;;;;;;14.75;10.60;;;;;;;;;;5092541;28;20064;-65
2021/09/14 06:00:32;;;;;;;16.05;11.25;;;;;;;;;;5092498;28;20056;-66
2021/09/14 06:02:59;;;;;;;21.50;12.80;;;;;;;;;;5093864;28;20470;-66
2021/09/14 06:05:26;;;;;;;19.52;12.15;;;;;;;;;;5092199;28;20044;-66
2021/09/14 06:07:55;;;;;;;21.10;13.98;;;;;;;;;;5092382;28;20560;-65
2021/09/14 06:10:22;;;;;;;16.52;12.90;;;;;;;;;;5091976;28;20548;-66
2021/09/14 06:12:49;;;;;;;17.52;11.57;;;;;;;;;;5092408;28;20059;-66
2021/09/14 06:15:16;;;;;;;18.30;12.70;;;;;;;;;;5092369;28;20051;-65
2021/09/14 06:17:43;;;;;;;16.85;11.52;;;;;;;;;;5092242;28;20048;-66
2021/09/14 06:20:11;;;;;;;16.00;11.27;;;;;;;;;;5091888;28;20052;-66
2021/09/14 06:22:38;;;;;;;15.75;11.45;;;;;;;;;;5092197;28;20526;-66
2021/09/14 06:25:08;;;;;;;16.05;11.15;;;;;;;;;;5091789;28;20048;-66
2021/09/14 06:27:35;;;;;;;14.70;10.38;;;;;;;;;;5092032;28;20056;-66
2021/09/14 06:30:02;;;;;;;24.40;17.73;;;;;;;;;;5091846;28;20052;-66
2021/09/14 06:32:29;;;;;;;30.88;24.02;;;;;;;;;;5092212;28;20500;-66
2021/09/14 06:34:56;;;;;;;24.80;16.88;;;;;;;;;;5091659;28;20052;-66
2021/09/14 06:37:22;;;;;;;21.65;15.52;;;;;;;;;;5091867;28;20389;-66
2021/09/14 06:39:49;;;;;;;19.17;12.73;;;;;;;;;;5091619;28;20052;-65
2021/09/14 06:42:18;;;;;;;17.60;12.52;;;;;;;;;;5092015;28;20044;-66
2021/09/14 06:44:45;;;;;;;16.33;11.30;;;;;;;;;;5091688;28;20131;-65
2021/09/14 06:47:12;;;;;;;18.08;12.02;;;;;;;;;;5091798;28;20052;-66
2021/09/14 06:49:39;;;;;;;17.23;12.15;;;;;;;;;;5091591;28;20052;-66
2021/09/14 06:52:07;;;;;;;18.42;12.50;;;;;;;;;;5091470;28;20050;-66
2021/09/14 06:54:33;;;;;;;15.25;11.10;;;;;;;;;;5091939;28;20431;-66
2021/09/14 06:57:00;;;;;;;19.10;12.77;;;;;;;;;;5094440;28;20059;-66
2021/09/14 06:59:29;;;;;;;18.13;12.15;;;;;;;;;;5095463;28;20507;-66
2021/09/14 07:01:56;;;;;;;21.75;13.00;;;;;;;;;;5095167;28;20056;-67
2021/09/14 07:04:23;;;;;;;25.27;17.98;;;;;;;;;;5095298;28;20048;-66
2021/09/14 07:06:50;;;;;;;26.30;17.58;;;;;;;;;;5094245;28;20052;-66
2021/09/14 07:09:18;;;;;;;20.95;15.95;;;;;;;;;;5092870;28;20048;-66
2021/09/14 07:11:45;;;;;;;23.17;15.73;;;;;;;;;;5093188;28;20056;-66
2021/09/14 07:14:13;;;;;;;25.40;17.95;;;;;;;;;;5093131;28;20058;-66
2021/09/14 07:16:41;;;;;;;25.10;14.43;;;;;;;;;;5093422;28;20044;-66
2021/09/14 07:19:08;;;;;;;20.85;14.57;;;;;;;;;;5092957;28;20077;-70
2021/09/14 07:21:35;;;;;;;18.50;12.15;;;;;;;;;;5093107;28;20157;-70
2021/09/14 07:24:02;;;;;;;15.85;11.77;;;;;;;;;;5092830;28;20044;-69
2021/09/14 07:26:29;;;;;;;18.45;12.57;;;;;;;;;;5092933;28;20063;-67
2021/09/14 07:28:56;;;;;;;22.13;13.23;;;;;;;;;;5093002;28;20547;-69
2021/09/14 07:31:23;;;;;;;16.17;11.20;;;;;;;;;;5092793;28;20525;-68
2021/09/14 07:33:51;;;;;;;15.50;11.15;;;;;;;;;;5092444;28;20062;-68
2021/09/14 07:36:18;;;;;;;18.38;10.98;;;;;;;;;;5092537;28;20048;-67
2021/09/14 07:38:45;;;;;;;17.90;11.82;;;;;;;;;;5092553;28;20409;-66
2021/09/14 07:41:12;;;;;;;15.95;10.88;;;;;;;;;;5092914;28;20481;-62
2021/09/14 07:43:39;;;;;;;15.32;10.93;;;;;;;;;;5092536;28;20048;-66
2021/09/14 07:46:09;;;;;;;19.25;11.18;;;;;;;;;;5092853;28;20062;-65
2021/09/14 07:48:36;;;;;;;15.95;9.95;;;;;;;;;;5092932;28;20212;-66
2021/09/14 07:51:05;;;;;;;18.63;11.23;;;;;;;;;;5092442;28;20420;-61
2021/09/14 07:53:32;;;;;;;16.50;10.85;;;;;;;;;;5092583;28;20048;-61
2021/09/14 07:55:59;;;;;;;16.23;11.35;;;;;;;;;;5092255;28;20097;-61
2021/09/14 07:58:25;;;;;;;20.85;13.40;;;;;;;;;;5091914;28;20135;-62
2021/09/14 08:00:53;;;;;;;17.70;13.13;;;;;;;;;;5092712;28;20052;-61
2021/09/14 08:03:20;;;;;;;16.63;13.02;;;;;;;;;;5092305;28;20055;-62
2021/09/14 08:05:47;;;;;;;16.75;12.40;;;;;;;;;;5092992;28;20048;-63
2021/09/14 08:08:15;;;;;;;12.95;9.95;;;;;;;;;;5092153;28;20044;-63
2021/09/14 08:10:42;;;;;;;16.60;11.13;;;;;;;;;;5092459;28;20087;-63
2021/09/14 08:13:09;;;;;;;14.98;11.43;;;;;;;;;;5091856;28;20047;-70
2021/09/14 08:15:37;;;;;;;18.38;11.88;;;;;;;;;;5092061;28;20058;-69
2021/09/14 08:18:04;;;;;;;15.80;10.25;;;;;;;;;;5091884;28;20113;-71
2021/09/14 08:20:31;;;;;;;16.80;11.85;;;;;;;;;;5091919;28;20523;-70
2021/09/14 08:22:58;;;;;;;16.05;12.23;;;;;;;;;;5091840;28;20247;-70
2021/09/14 08:25:26;;;;;;;13.45;9.45;;;;;;;;;;5091286;28;20040;-70
2021/09/14 08:27:54;;;;;;;16.05;11.25;;;;;;;;;;5091421;28;20087;-70
2021/09/14 08:30:21;;;;;;;16.45;11.88;;;;;;;;;;5091634;28;20054;-70
2021/09/14 08:32:48;;;;;;;15.77;10.75;;;;;;;;;;5091691;28;20497;-70
2021/09/14 08:35:15;;;;;;;16.70;12.68;;;;;;;;;;5091100;28;20048;-70
2021/09/14 08:37:42;;;;;;;15.45;11.60;;;;;;;;;;5091394;28;20055;-70
2021/09/14 08:40:10;;;;;;;16.13;11.77;;;;;;;;;;5091230;28;20046;-69
2021/09/14 08:42:39;;;;;;;14.25;10.32;;;;;;;;;;5091466;28;20058;-70
2021/09/14 08:45:07;;;;;;;13.68;9.93;;;;;;;;;;5091436;28;20054;-70
2021/09/14 08:47:36;;;;;;;17.08;12.02;;;;;;;;;;5091213;28;20083;-71
2021/09/14 08:50:04;;;;;;;18.92;12.45;;;;;;;;;;5091507;28;20048;-70
2021/09/14 08:52:32;;;;;;;17.05;12.05;;;;;;;;;;5091182;28;20059;-70
2021/09/14 08:54:59;;;;;;;12.75;10.70;;;;;;;;;;5090694;28;20151;-70
2021/09/14 08:57:26;;;;;;;21.05;11.98;;;;;;;;;;5091220;28;20064;-70
2021/09/14 08:59:56;;;;;;;16.90;11.18;;;;;;;;;;5091004;28;20078;-70
2021/09/14 09:02:23;;;;;;;14.30;10.18;;;;;;;;;;5093456;28;20055;-70
2021/09/14 09:05:00;;;;;;;21.00;12.50;;;;;;;;;;5111230;28;20542;-70
2021/09/14 09:07:29;;;;;;;19.60;11.50;;;;;;;;;;5111198;28;20572;-70
2021/09/14 09:10:07;;;;;;;15.68;10.00;;;;;;;;;;5111346;28;20428;-70
2021/09/14 09:12:37;;;;;;;17.10;12.15;;;;;;;;;;5111287;28;20035;-69
2021/09/14 09:15:06;;;;;;;;;;;;;;;;;;5091949;28;20101;-69
2021/09/14 09:17:33;;;;;;;17.13;10.38;;;;;;;;;;5090793;28;19920;-70
2021/09/14 09:20:03;;;;;;;16.98;10.77;;;;;;;;;;5089945;28;20050;-70
2021/09/14 09:22:30;;;;;;;15.52;11.07;;;;;;;;;;5090662;28;20060;-70
2021/09/14 09:24:57;;;;;;;13.60;10.27;;;;;;;;;;5090480;28;20059;-70
2021/09/14 09:27:28;;;;;;;20.27;11.43;;;;;;;;;;5090837;28;20056;-70
2021/09/14 09:30:00;;;;;;;15.35;10.43;;;;;;;;;;5090475;28;20485;-69
2021/09/14 09:32:43;;;;;;;15.50;9.95;;;;;;;;;;5090188;28;20044;-70
2021/09/14 09:35:11;;;;;;;12.65;9.48;;;;;;;;;;5090053;28;20052;-70
2021/09/14 09:37:38;;;;;;;15.57;12.02;;;;;;;;;;5090210;28;20052;-70
2021/09/14 09:40:06;;;;;;;16.58;10.65;;;;;;;;;;5090352;28;20050;-70
2021/09/14 09:42:33;;;;;;;12.65;10.30;;;;;;;;;;5090262;28;20066;-69
2021/09/14 09:45:02;;;;;;;14.38;10.50;;;;;;;;;;5090016;28;20485;-70
2021/09/14 09:47:30;;;;;;;13.70;10.48;;;;;;;;;;5090418;28;20090;-70
2021/09/14 09:49:57;;;;;;;12.65;10.65;;;;;;;;;;5090066;28;20052;-70
2021/09/14 09:52:24;;;;;;;18.15;11.27;;;;;;;;;;5089997;28;20044;-69
2021/09/14 09:54:52;;;;;;;14.82;10.73;;;;;;;;;;5089969;28;20052;-68
2021/09/14 09:57:19;;;;;;;12.48;10.48;;;;;;;;;;5090188;28;20382;-69
2021/09/14 09:59:47;;;;;;;14.70;11.00;;;;;;;;;;5090023;28;20489;-70
2021/09/14 10:02:17;;;;;;;13.07;10.13;;;;;;;;;;5091301;28;20052;-70
2021/09/14 10:04:55;;;;;;;18.48;10.75;;;;;;;;;;5109839;28;20043;-70
2021/09/14 10:07:27;;;;;;;16.98;10.68;;;;;;;;;;5109405;28;20043;-70
2021/09/14 10:09:56;;;;;;;14.43;10.23;;;;;;;;;;5109490;28;20086;-70
2021/09/14 10:12:25;;;;;;;15.55;9.82;;;;;;;;;;5110098;28;20048;-70
2021/09/14 10:15:14;;;;;;;12.10;10.57;;;;;;;;;;5092383;28;20435;-70
2021/09/14 10:17:50;;;;;;;11.15;9.65;;;;;;;;;;5084096;28;20105;-70
2021/09/14 10:20:21;;;;;;;13.88;9.30;;;;;;;;;;5089462;28;20055;-70
2021/09/14 10:22:59;;;;;;;16.23;9.52;;;;;;;;;;5090135;28;20284;-68
2021/09/14 10:25:26;;;;;;;12.60;10.15;;;;;;;;;;5090101;28;20070;-68
2021/09/14 10:27:54;;;;;;;13.20;9.48;;;;;;;;;;5089652;28;20412;-68
2021/09/14 10:30:25;;;;;;;12.30;9.32;;;;;;;;;;5090200;28;20481;-68
2021/09/14 10:32:52;;;;;;;15.52;9.20;;;;;;;;;;5093139;28;20048;-70
2021/09/14 10:35:30;;;;;;;15.07;10.35;;;;;;;;;;5092942;28;20051;-68
2021/09/14 10:38:07;;;;;;;14.13;10.32;;;;;;;;;;5093973;28;20513;-68
2021/09/14 10:40:43;;;;;;;14.45;9.98;;;;;;;;;;5092583;28;20062;-68
2021/09/14 10:43:21;;;;;;;12.45;9.73;;;;;;;;;;5093900;28;20596;-68
2021/09/14 10:45:48;;;;;;;11.90;8.95;;;;;;;;;;5093881;28;20060;-68
2021/09/14 10:48:29;;;;;;;12.95;9.45;;;;;;;;;;5093847;28;20048;-68
2021/09/14 10:51:10;;;;;;;11.20;9.30;;;;;;;;;;5093350;28;20044;-68
2021/09/14 10:53:37;;;;;;;12.23;8.98;;;;;;;;;;5093048;28;20070;-68
2021/09/14 10:56:06;;;;;;;13.77;9.52;;;;;;;;;;5093133;28;20048;-68
2021/09/14 10:58:41;;;;;;;13.38;10.10;;;;;;;;;;5093597;28;20125;-68
2021/09/14 11:01:08;;;;;;;12.77;9.73;;;;;;;;;;5093394;28;20121;-68
2021/09/14 11:03:35;;;;;;;12.00;9.40;;;;;;;;;;5105530;28;20557;-68
2021/09/14 11:06:05;;;;;;;11.48;9.65;;;;;;;;;;5113488;28;20048;-68
2021/09/14 11:08:32;;;;;;;11.98;9.27;;;;;;;;;;5113849;28;20104;-69
2021/09/14 11:11:01;;;;;;;14.07;9.50;;;;;;;;;;5113769;28;20404;-69
2021/09/14 11:13:29;;;;;;;12.15;8.90;;;;;;;;;;5107235;28;20071;-69
2021/09/14 11:16:01;;;;;;;12.20;9.95;;;;;;;;;;5093307;28;20058;-69
2021/09/14 11:18:30;;;;;;;13.68;10.13;;;;;;;;;;5092903;28;20055;-69
2021/09/14 11:21:07;;;;;;;15.15;11.15;;;;;;;;;;5093058;28;20487;-69
2021/09/14 11:23:35;;;;;;;17.63;13.90;;;;;;;;;;5092508;28;20048;-69
2021/09/14 11:26:03;;;;;;;14.40;11.38;;;;;;;;;;5092489;28;20048;-71
2021/09/14 11:28:30;;;;;;;16.75;10.77;;;;;;;;;;5092714;28;20052;-71
2021/09/14 11:30:59;;;;;;;11.20;9.57;;;;;;;;;;5092992;28;20050;-70
2021/09/14 11:33:27;;;;;;;13.25;10.57;;;;;;;;;;5092656;28;20051;-70
2021/09/14 11:35:55;;;;;;;14.52;10.88;;;;;;;;;;5093597;28;20043;-69
2021/09/14 11:38:25;;;;;;;13.63;10.05;;;;;;;;;;5092805;28;20047;-72
2021/09/14 11:40:53;;;;;;;13.13;9.75;;;;;;;;;;5092877;28;20521;-66
2021/09/14 11:43:23;;;;;;;13.90;10.10;;;;;;;;;;5091957;28;20429;-71
2021/09/14 11:45:52;;;;;;;16.27;10.80;;;;;;;;;;5092901;28;20364;-73
2021/09/14 11:48:21;;;;;;;12.95;9.52;;;;;;;;;;5092739;28;20052;-70
2021/09/14 11:50:49;;;;;;;14.73;10.95;;;;;;;;;;5092010;28;20134;-71
2021/09/14 11:53:17;;;;;;;13.25;10.88;;;;;;;;;;5092329;28;20484;-71
2021/09/14 11:55:47;;;;;;;14.07;10.45;;;;;;;;;;5092558;28;20048;-70
2021/09/14 11:58:15;;;;;;;;;;;;;;;;;;5092726;28;20052;-71
2021/09/14 12:00:43;;;;;;;13.00;9.43;;;;;;;;;;5092658;28;20393;-71
2021/09/14 12:03:11;;;;;;;13.95;9.40;;;;;;;;;;5101318;28;20055;-71
2021/09/14 12:05:38;;;;;;;11.38;9.98;;;;;;;;;;5112561;28;20145;-70
2021/09/14 12:08:11;;;;;;;14.18;11.00;;;;;;;;;;5094749;28;20089;-70
2021/09/14 12:10:52;;;;;;;13.43;11.65;;;;;;;;;;5091766;28;20048;-70
2021/09/14 12:13:19;;;;;;;15.52;12.32;;;;;;;;;;5091707;28;20425;-70
2021/09/14 12:15:48;;;;;;;18.00;12.27;;;;;;;;;;5092437;28;20055;-70
2021/09/14 12:18:16;;;;;;;11.65;9.65;;;;;;;;;;5091966;28;20055;-70
2021/09/14 12:20:44;;;;;;;14.07;10.90;;;;;;;;;;5092075;28;20079;-74
2021/09/14 12:23:11;;;;;;;14.80;10.57;;;;;;;;;;5091979;28;20404;-70
2021/09/14 12:25:38;;;;;;;13.02;10.32;;;;;;;;;;5091942;28;20059;-68
2021/09/14 12:28:07;;;;;;;13.60;10.35;;;;;;;;;;5091692;28;20048;-74
2021/09/14 12:30:35;;;;;;;13.52;10.73;;;;;;;;;;5091237;28;20044;-69
2021/09/14 12:33:02;;;;;;;12.60;10.80;;;;;;;;;;5092104;28;20089;-73
2021/09/14 12:35:30;;;;;;;13.70;9.90;;;;;;;;;;5091374;28;20052;-69
2021/09/14 12:37:57;;;;;;;12.70;10.30;;;;;;;;;;5091571;28;20447;-69
2021/09/14 12:40:24;;;;;;;15.95;10.32;;;;;;;;;;5091395;28;20056;-69
2021/09/14 12:42:51;;;;;;;15.52;11.93;;;;;;;;;;5091541;28;20055;-69
2021/09/14 12:45:19;;;;;;;12.40;10.60;;;;;;;;;;5091755;28;20062;-69
2021/09/14 12:47:46;;;;;;;12.93;9.43;;;;;;;;;;5091380;28;20050;-69
2021/09/14 12:50:13;;;;;;;13.32;10.30;;;;;;;;;;5091177;28;20048;-69
2021/09/14 12:52:41;;;;;;;11.32;9.50;;;;;;;;;;5091199;28;20052;-69
2021/09/14 12:55:11;;;;;;;12.15;9.80;;;;;;;;;;5090897;28;20081;-69
2021/09/14 12:57:38;;;;;;;12.02;9.07;;;;;;;;;;5091436;28;20048;-69
2021/09/14 13:00:07;;;;;;;12.10;9.25;;;;;;;;;;5091063;28;20051;-69
2021/09/14 13:02:36;;;;;;;13.65;9.85;;;;;;;;;;5091197;28;20054;-69
2021/09/14 13:05:03;;;;;;;12.27;9.65;;;;;;;;;;5091389;28;20528;-69
2021/09/14 13:07:30;;;;;;;10.55;9.25;;;;;;;;;;5091024;28;20048;-69
2021/09/14 13:09:57;;;;;;;11.18;9.10;;;;;;;;;;5090965;28;20413;-69
2021/09/14 13:12:30;;;;;;;11.82;9.70;;;;;;;;;;5090995;28;20401;-70
2021/09/14 13:17:44;;;;;;;16.10;9.50;;;;;;;;;;5091102;28;20075;-69
2021/09/14 13:20:12;;;;;;;11.98;9.98;;;;;;;;;;5091024;28;20137;-69
2021/09/14 13:22:39;;;;;;;13.25;9.75;;;;;;;;;;5091149;28;20374;-69
2021/09/14 13:25:07;;;;;;;11.35;9.93;;;;;;;;;;5090788;28;20047;-69
2021/09/14 13:27:34;;;;;;;11.13;9.38;;;;;;;;;;5090920;28;20048;-69
2021/09/14 13:30:01;;;;;;;12.98;10.98;;;;;;;;;;5090987;28;20416;-70
2021/09/14 13:32:28;;;;;;;15.90;9.90;;;;;;;;;;5090914;28;20134;-70
2021/09/14 13:34:57;;;;;;;10.98;9.65;;;;;;;;;;5090436;28;20058;-69
2021/09/14 13:37:24;;;;;;;11.57;9.30;;;;;;;;;;5090814;28;20483;-70
2021/09/14 13:39:51;;;;;;;12.90;9.75;;;;;;;;;;5090838;28;20046;-69
2021/09/14 13:42:23;;;;;;;11.02;9.35;;;;;;;;;;5090833;28;20102;-69
2021/09/14 13:47:35;;;;;;;12.15;9.75;;;;;;;;;;5090480;28;20051;-70
2021/09/14 13:50:04;;;;;;;11.75;10.55;;;;;;;;;;5090479;28;20089;-69
2021/09/14 13:52:31;;;;;;;12.55;9.60;;;;;;;;;;5090523;28;20135;-69
2021/09/14 13:54:58;;;;;;;11.65;9.60;;;;;;;;;;5090298;28;20515;-70
2021/09/14 13:57:25;;;;;;;10.50;9.40;;;;;;;;;;5089489;28;20078;-70
2021/09/14 13:59:54;;;;;;;11.68;9.60;;;;;;;;;;5090107;28;20060;-69
2021/09/14 14:02:22;;;;;;;12.38;9.50;;;;;;;;;;5090186;28;20082;-69
2021/09/14 14:04:50;;;;;;;15.38;10.85;;;;;;;;;;5090064;28;20054;-69
2021/09/14 14:07:18;;;;;;;12.50;10.25;;;;;;;;;;5090170;28;20040;-69
2021/09/14 14:09:45;;;;;;;11.50;10.32;;;;;;;;;;5090396;28;20052;-69
2021/09/14 14:12:12;;;;;;;10.50;8.63;;;;;;;;;;5090196;28;20048;-70
2021/09/14 14:14:39;;;;;;;13.98;9.95;;;;;;;;;;5090524;28;20056;-69
2021/09/14 14:17:06;;;;;;;10.68;9.45;;;;;;;;;;5089390;28;20043;-69
2021/09/14 14:19:33;;;;;;;11.75;9.68;;;;;;;;;;5090082;28;20072;-69
2021/09/14 14:22:00;;;;;;;11.30;9.32;;;;;;;;;;5090070;28;20052;-69
2021/09/14 14:24:28;;;;;;;11.57;10.35;;;;;;;;;;5089726;28;20413;-69
2021/09/14 14:26:55;;;;;;;12.63;10.82;;;;;;;;;;5090105;28;20059;-69
2021/09/14 14:29:22;;;;;;;11.35;9.35;;;;;;;;;;5089097;28;20055;-69
2021/09/14 14:31:49;;;;;;;11.98;9.55;;;;;;;;;;5090267;28;20060;-69
2021/09/14 14:34:16;;;;;;;11.23;8.98;;;;;;;;;;5089929;28;20489;-69
2021/09/14 14:36:43;;;;;;;11.30;9.32;;;;;;;;;;5090247;28;20423;-69
2021/09/14 14:39:10;;;;;;;13.05;9.43;;;;;;;;;;5090000;28;20413;-69
2021/09/14 14:41:39;;;;;;;13.18;9.23;;;;;;;;;;5090152;28;20063;-67
2021/09/14 14:44:06;;;;;;;11.02;8.93;;;;;;;;;;5089784;28;20054;-69
2021/09/14 14:46:33;;;;;;;16.33;9.55;;;;;;;;;;5090082;28;20143;-69
2021/09/14 14:49:00;;;;;;;11.20;9.45;;;;;;;;;;5090702;28;20052;-69
2021/09/14 14:51:27;;;;;;;14.65;10.60;;;;;;;;;;5089721;28;20508;-69
2021/09/14 14:53:54;;;;;;;12.18;10.82;;;;;;;;;;5089607;28;20127;-68
2021/09/14 14:56:21;;;;;;;11.10;9.88;;;;;;;;;;5089662;28;20055;-68
2021/09/14 14:58:50;;;;;;;12.80;10.20;;;;;;;;;;5089576;28;20432;-69
2021/09/14 15:01:17;;;;;;;12.77;11.03;;;;;;;;;;5089738;28;20044;-68
2021/09/14 15:03:43;;;;;;;11.80;10.43;;;;;;;;;;5089381;28;20059;-69
2021/09/14 15:06:10;;;;;;;11.50;10.13;;;;;;;;;;5089874;28;20485;-68
2021/09/14 15:08:37;;;;;;;10.45;9.32;;;;;;;;;;5089683;28;20102;-69
2021/09/14 15:11:04;;;;;;;12.63;10.02;;;;;;;;;;5089659;28;20044;-69
2021/09/14 15:13:31;;;;;;;10.65;8.75;;;;;;;;;;5089485;28;20052;-69
2021/09/14 15:16:00;;;;;;;11.75;9.50;;;;;;;;;;5089746;28;20052;-69